KTPL/TPL METAR and TAF weather

Enter ICAO airport designator
Station Type Date Time Source
KTPL METAR 2020/10/20 17:24 UTC NOAA

KTPL 201724Z AUTO 16010G15KT 10SM SCT022 28/22 A3002 RMK AO2


Station Type Date Time Source
KTPL Decoded METAR 2020/10/20 17:24 UTC NOAA

Temple, Draughon-Miller Central Texas Regional Airport, TX, United States (KTPL) 31-09N 097-24W
Oct 20, 2020 - 01:24 PM EDT / 2020.10.20 1724 UTC
Wind: from the SSE (160 degrees) at 12 MPH (10 KT) gusting to 17 MPH (15 KT):0
Visibility: 10 mile(s):0
Sky conditions: partly cloudy
Temperature: 82 F (28 C)
Dew Point: 71 F (22 C)
Relative Humidity: 69%
Pressure (altimeter): 30.02 in. Hg (1016 hPa)
ob: KTPL 201724Z AUTO 16010G15KT 10SM SCT022 28/22 A3002 RMK AO2
cycle: 17

Station Type Date Time Source
KTPL TAF UTC NOAA

Error!

Example: see airport list